Time;durP1;ratioP1;P1;durP2;ratioP2;P2;SDS_P1;SDS_P2;PMS_P1;PMS_P2;Temp;Humidity;BMP_temperature;BMP_pressure;BME280_temperature;BME280_humidity;BME280_pressure;Samples;Min_cycle;Max_cycle;Signal;HPM_P1;HPM_P2
2021/08/02 00:00:04;;;;;;;0.40;0.40;;;;;;;18.15;61.76;98511.13;5153919;27;39929;-82
2021/08/02 00:02:54;;;;;;;0.60;0.60;;;;;;;18.01;62.22;98493.75;5153107;27;41641;-83
2021/08/02 00:05:23;;;;;;;0.73;0.50;;;;;;;18.07;62.01;98514.56;5154359;27;42966;-82
2021/08/02 00:07:57;;;;;;;0.40;0.40;;;;;;;17.94;62.07;98492.63;5135780;27;41557;-83
2021/08/02 00:10:28;;;;;;;0.40;0.40;;;;;;;18.03;62.16;98515.88;5153355;27;40322;-83
2021/08/02 00:12:59;;;;;;;0.47;0.47;;;;;;;18.01;62.08;98506.28;5152616;27;40868;-81
2021/08/02 00:15:28;;;;;;;0.60;0.60;;;;;;;17.89;62.38;98486.91;5136080;27;42780;-82
2021/08/02 00:17:58;;;;;;;0.70;0.70;;;;;;;17.97;62.57;98505.75;5153080;27;41534;-82
2021/08/02 00:20:29;;;;;;;0.40;0.40;;;;;;;17.94;62.73;98501.53;5136055;27;38924;-81
2021/08/02 00:22:59;;;;;;;0.40;0.40;;;;;;;17.91;62.66;98501.84;5135020;27;41713;-81
2021/08/02 00:25:28;;;;;;;0.50;0.33;;;;;;;17.95;62.56;98518.44;5153517;27;42026;-81
2021/08/02 00:27:56;;;;;;;0.30;0.30;;;;;;;17.95;62.39;98518.44;5152461;27;41183;-82
2021/08/02 00:30:24;;;;;;;0.50;0.50;;;;;;;17.81;62.31;98500.19;5134987;27;39780;-81
2021/08/02 00:32:53;;;;;;;0.57;0.57;;;;;;;17.89;62.74;98514.53;5152019;27;41607;-81
2021/08/02 00:35:22;;;;;;;0.50;0.50;;;;;;;17.82;63.35;98513.44;5151090;27;43750;-82
2021/08/02 00:37:57;;;;;;;0.40;0.40;;;;;;;17.81;63.39;98517.09;5134153;27;41395;-81
2021/08/02 00:41:04;;;;;;;0.20;0.20;;;;;;;17.79;63.94;98512.91;5134887;27;39042;-81
2021/08/02 00:44:13;;;;;;;0.67;0.60;;;;;;;17.70;63.85;98508.44;5114589;27;42051;-82
2021/08/02 00:46:48;;;;;;;0.50;0.50;;;;;;;17.69;63.80;98522.81;5152590;27;43009;-80
2021/08/02 00:49:17;;;;;;;0.30;0.30;;;;;;;17.67;64.01;98516.78;5135149;27;41308;-83
2021/08/02 00:51:51;;;;;;;0.40;0.40;;;;;;;17.66;63.65;98518.63;5134252;27;39082;-81
2021/08/02 00:54:22;;;;;;;0.50;0.50;;;;;;;17.66;63.64;98518.63;5134852;27;40517;-82
2021/08/02 00:56:52;;;;;;;0.30;0.30;;;;;;;17.67;63.41;98519.47;5134100;27;43076;-83
2021/08/02 00:59:20;;;;;;;0.60;0.50;;;;;;;17.67;63.11;98520.31;5135168;27;41297;-83
2021/08/02 01:01:50;;;;;;;0.40;0.30;;;;;;;17.56;63.27;98499.88;5134336;27;41148;-81
2021/08/02 01:04:19;;;;;;;0.43;0.40;;;;;;;17.69;63.07;98525.50;5134079;27;40858;-81
2021/08/02 01:06:51;;;;;;;0.33;0.33;;;;;;;17.70;63.04;98527.19;5152775;27;42659;-81
2021/08/02 01:09:20;;;;;;;0.40;0.40;;;;;;;17.56;62.86;98507.91;5135000;27;41280;-83
2021/08/02 01:11:51;;;;;;;0.30;0.30;;;;;;;17.67;63.21;98532.84;5154018;27;40309;-82
2021/08/02 01:14:21;;;;;;;0.30;0.30;;;;;;;17.62;63.14;98533.25;5134834;27;41107;-81
2021/08/02 01:16:50;;;;;;;0.40;0.40;;;;;;;17.57;62.96;98535.53;5152268;27;43090;-81
2021/08/02 01:19:22;;;;;;;0.50;0.40;;;;;;;17.42;62.88;98504.91;5134753;27;42158;-80
2021/08/02 01:21:59;;;;;;;0.40;0.33;;;;;;;17.37;63.14;98510.69;5152621;27;39893;-83
2021/08/02 01:24:28;;;;;;;0.27;0.27;;;;;;;17.38;63.52;98522.22;5152295;27;41604;-82
2021/08/02 01:27:29;;;;;;;0.60;0.60;;;;;;;17.29;63.49;98521.28;5152621;27;43657;-82
2021/08/02 01:30:19;;;;;;;0.30;0.30;;;;;;;17.08;63.86;98502.75;5134490;27;41422;-84
2021/08/02 01:32:52;;;;;;;0.63;0.40;;;;;;;17.02;63.92;98510.50;5152243;27;40973;-82
2021/08/02 01:35:21;;;;;;;0.30;0.30;;;;;;;16.96;63.79;98519.94;5151699;27;42714;-82
2021/08/02 01:37:49;;;;;;;0.50;0.40;;;;;;;16.91;63.86;98516.88;5134197;27;41718;-81
2021/08/02 01:40:21;;;;;;;0.43;0.40;;;;;;;16.83;63.71;98512.22;5151460;27;42480;-82
2021/08/02 01:42:49;;;;;;;0.30;0.30;;;;;;;16.86;64.06;98532.50;5133849;27;38988;-81
2021/08/02 01:45:22;;;;;;;0.30;0.30;;;;;;;16.75;64.48;98525.47;5152356;27;42268;-82
2021/08/02 01:48:00;;;;;;;0.83;0.50;;;;;;;16.77;64.34;98531.53;5132977;27;41852;-82
2021/08/02 01:50:38;;;;;;;0.30;0.30;;;;;;;16.64;64.66;98525.63;5133801;27;41632;-83
2021/08/02 01:53:19;;;;;;;0.40;0.40;;;;;;;16.66;64.32;98534.38;5135473;27;39035;-82
2021/08/02 01:56:00;;;;;;;0.43;0.43;;;;;;;16.65;64.74;98543.38;5152292;27;42006;-83
2021/08/02 01:58:33;;;;;;;0.40;0.30;;;;;;;16.60;65.10;98539.38;5133854;27;41784;-81
2021/08/02 02:01:02;;;;;;;0.40;0.40;;;;;;;16.57;64.92;98542.38;5152288;27;41199;-81
2021/08/02 02:03:37;;;;;;;0.40;0.40;;;;;;;16.28;64.92;98502.25;5133408;27;38659;-81
2021/08/02 02:06:17;;;;;;;0.20;0.20;;;;;;;16.51;65.02;98541.09;5133536;27;40894;-81
2021/08/02 02:08:55;;;;;;;0.40;0.40;;;;;;;16.39;64.92;98528.84;5151305;27;42674;-80
2021/08/02 02:11:32;;;;;;;0.40;0.40;;;;;;;16.46;65.21;98546.00;5133839;27;42563;-81
2021/08/02 02:14:11;;;;;;;0.77;0.50;;;;;;;16.34;65.24;98539.09;5150721;27;39932;-82
2021/08/02 02:16:44;;;;;;;0.60;0.60;;;;;;;16.34;65.31;98539.09;5151480;27;42775;-80
2021/08/02 02:19:13;;;;;;;0.50;0.50;;;;;;;16.27;65.25;98541.50;5133304;27;42049;-82
2021/08/02 02:21:41;;;;;;;0.30;0.30;;;;;;;15.99;65.34;98500.41;5134005;27;41482;-83
2021/08/02 02:24:14;;;;;;;0.40;0.40;;;;;;;16.20;65.73;98539.50;5150991;27;40293;-82
2021/08/02 02:26:47;;;;;;;0.30;0.30;;;;;;;16.26;65.43;98555.00;5133420;27;40734;-83
2021/08/02 02:29:19;;;;;;;0.20;0.20;;;;;;;16.13;65.29;98544.56;5151042;27;43287;-83
2021/08/02 02:31:50;;;;;;;0.30;0.30;;;;;;;16.08;65.07;98550.31;5133516;27;41502;-82
2021/08/02 02:34:19;;;;;;;0.20;0.20;;;;;;;16.10;64.76;98563.53;5133159;27;40412;-82
2021/08/02 02:36:50;;;;;;;0.30;0.30;;;;;;;16.06;64.89;98572.84;5132923;27;41702;-82
2021/08/02 02:39:20;;;;;;;0.40;0.40;;;;;;;15.99;64.98;98555.66;5150185;27;43844;-81
2021/08/02 02:41:51;;;;;;;0.20;0.20;;;;;;;15.87;65.34;98552.25;5151575;27;42286;-81
2021/08/02 02:44:23;;;;;;;1.13;0.60;;;;;;;15.90;65.09;98567.16;5150794;27;39799;-83
2021/08/02 02:46:52;;;;;;;0.70;0.70;;;;;;;15.87;65.64;98567.41;5151158;27;41898;-82
2021/08/02 02:49:21;;;;;;;0.30;0.30;;;;;;;15.81;65.58;98568.81;5150205;27;42903;-83
2021/08/02 02:51:50;;;;;;;0.40;0.30;;;;;;;15.76;65.96;98571.91;5150461;27;41476;-81
2021/08/02 02:54:21;;;;;;;0.30;0.30;;;;;;;15.72;65.68;98572.28;5150481;27;40074;-82
2021/08/02 02:56:56;;;;;;;0.30;0.30;;;;;;;15.55;65.59;98556.94;5151958;27;42750;-82
2021/08/02 02:59:26;;;;;;;0.70;0.50;;;;;;;15.64;65.48;98572.13;5131989;27;42568;-81
2021/08/02 03:01:55;;;;;;;0.20;0.20;;;;;;;15.59;65.57;98579.69;5149925;27;42451;-83
2021/08/02 03:04:32;;;;;;;0.20;0.20;;;;;;;15.54;65.72;98580.06;5132856;27;40160;-82
2021/08/02 03:07:01;;;;;;;0.30;0.30;;;;;;;15.50;65.65;98586.63;5132678;27;42138;-81
2021/08/02 03:09:35;;;;;;;0.33;0.33;;;;;;;15.46;66.12;98580.72;5150244;27;42910;-82
2021/08/02 03:12:07;;;;;;;0.20;0.20;;;;;;;15.42;66.26;98579.31;5132276;27;41186;-82
2021/08/02 03:14:35;;;;;;;0.50;0.40;;;;;;;15.41;66.50;98576.78;5132618;27;38827;-83
2021/08/02 03:17:06;;;;;;;0.40;0.40;;;;;;;15.39;66.60;98579.56;5132553;27;41945;-81
2021/08/02 03:19:34;;;;;;;0.20;0.20;;;;;;;15.25;66.81;98569.25;5150223;27;43441;-81
2021/08/02 03:22:09;;;;;;;0.40;0.40;;;;;;;15.31;66.89;98584.72;5150498;27;43053;-81
2021/08/02 03:24:44;;;;;;;0.30;0.30;;;;;;;15.26;66.92;98576.28;5132892;27;40248;-80
2021/08/02 03:27:24;;;;;;;0.50;0.40;;;;;;;15.27;67.18;98585.97;5150010;27;41174;-81
2021/08/02 03:29:55;;;;;;;0.30;0.30;;;;;;;15.23;67.36;98595.19;5150131;27;42521;-82
2021/08/02 03:32:25;;;;;;;0.37;0.37;;;;;;;15.22;67.18;98600.66;5151415;27;43179;-81
2021/08/02 03:34:57;;;;;;;1.40;0.40;;;;;;;15.07;67.39;98584.16;5150506;27;40182;-83
2021/08/02 03:37:26;;;;;;;0.50;0.50;;;;;;;15.16;67.33;98599.38;5132226;27;40413;-82
2021/08/02 03:39:56;;;;;;;0.30;0.30;;;;;;;15.14;67.92;98600.47;5150015;27;42929;-81
2021/08/02 03:42:26;;;;;;;0.60;0.60;;;;;;;15.02;69.22;98583.69;5150474;27;42554;-83
2021/08/02 03:44:54;;;;;;;0.40;0.40;;;;;;;15.10;68.87;98606.06;5149468;27;40020;-81
2021/08/02 03:47:23;;;;;;;0.50;0.50;;;;;;;15.02;69.13;98589.03;5150131;27;42411;-82
2021/08/02 03:49:51;;;;;;;0.50;0.50;;;;;;;15.04;69.10;98595.94;5149962;27;42086;-82
2021/08/02 03:52:18;;;;;;;0.33;0.33;;;;;;;15.14;69.49;98605.81;5132190;27;41153;-82
2021/08/02 03:54:46;;;;;;;0.50;0.50;;;;;;;15.13;69.77;98610.31;5151459;27;40899;-81
2021/08/02 03:57:15;;;;;;;0.47;0.47;;;;;;;15.06;69.57;98602.00;5132364;27;41987;-81
2021/08/02 03:59:49;;;;;;;1.57;1.07;;;;;;;15.17;69.09;98626.91;5150824;27;43915;-83
2021/08/02 04:02:17;;;;;;;0.40;0.40;;;;;;;15.14;69.03;98622.66;5132492;27;41547;-81
2021/08/02 04:04:44;;;;;;;0.40;0.40;;;;;;;15.16;68.83;98630.53;5131735;27;39947;-81
2021/08/02 04:07:12;;;;;;;0.30;0.30;;;;;;;15.17;68.75;98641.09;5132561;27;41691;-83
2021/08/02 04:09:40;;;;;;;0.37;0.37;;;;;;;15.14;68.44;98638.66;5132069;27;41685;-82
2021/08/02 04:12:09;;;;;;;0.40;0.40;;;;;;;15.15;68.47;98640.38;5135597;27;41418;-81
2021/08/02 04:14:37;;;;;;;1.30;0.70;;;;;;;15.17;68.26;98632.22;5136729;27;40617;-81
2021/08/02 04:17:06;;;;;;;0.30;0.30;;;;;;;15.19;68.27;98641.81;5134974;27;40753;-82
2021/08/02 04:19:34;;;;;;;0.30;0.30;;;;;;;15.21;67.80;98639.81;5135654;27;42071;-83
2021/08/02 04:22:01;;;;;;;0.30;0.30;;;;;;;15.30;67.98;98649.75;5135409;27;41405;-81
2021/08/02 04:24:29;;;;;;;0.60;0.60;;;;;;;15.36;67.60;98654.53;5136038;27;40061;-83
2021/08/02 04:26:57;;;;;;;0.60;0.60;;;;;;;15.45;67.89;98648.41;5153190;27;41992;-82
2021/08/02 04:29:24;;;;;;;0.40;0.40;;;;;;;15.57;67.97;98640.38;5135057;27;42122;-82
2021/08/02 04:31:52;;;;;;;0.93;0.80;;;;;;;15.69;67.46;98652.66;5152904;27;43270;-83
2021/08/02 04:34:21;;;;;;;0.57;0.33;;;;;;;15.82;67.46;98648.78;5152337;27;40142;-81
2021/08/02 04:36:48;;;;;;;0.43;0.43;;;;;;;15.96;67.09;98657.41;5135771;27;41014;-82
2021/08/02 04:39:16;;;;;;;0.50;0.50;;;;;;;16.08;66.74;98651.84;5152759;27;41427;-81
2021/08/02 04:41:43;;;;;;;0.63;0.60;;;;;;;16.27;66.83;98655.56;5135239;27;41512;-82
2021/08/02 04:44:11;;;;;;;0.63;0.50;;;;;;;16.28;66.38;98639.41;5153626;27;41023;-81
2021/08/02 04:46:38;;;;;;;0.50;0.50;;;;;;;16.60;66.45;98671.25;5135098;27;40939;-82
2021/08/02 04:49:06;;;;;;;0.40;0.40;;;;;;;16.78;66.57;98666.94;5153234;27;43182;-83
2021/08/02 04:51:35;;;;;;;1.00;0.70;;;;;;;16.98;66.62;98669.63;5152364;27;41317;-81
2021/08/02 04:54:02;;;;;;;0.50;0.50;;;;;;;17.12;66.15;98669.19;5153369;27;40195;-83
2021/08/02 04:56:30;;;;;;;0.60;0.60;;;;;;;17.24;65.99;98668.91;5151920;27;40625;-81
2021/08/02 04:58:58;;;;;;;0.93;0.80;;;;;;;17.39;65.61;98673.81;5134685;27;42790;-82
2021/08/02 05:01:25;;;;;;;0.40;0.40;;;;;;;17.50;65.80;98669.16;5152471;27;41400;-81
2021/08/02 05:03:53;;;;;;;0.50;0.50;;;;;;;17.59;65.30;98670.97;5152370;27;40293;-83
2021/08/02 05:06:20;;;;;;;0.77;0.77;;;;;;;17.72;65.49;98667.16;5154197;27;41063;-83
2021/08/02 05:08:49;;;;;;;0.43;0.43;;;;;;;17.84;65.33;98660.63;5134342;27;43230;-82
2021/08/02 05:11:17;;;;;;;0.73;0.60;;;;;;;17.95;65.35;98657.75;5152019;27;42445;-81
2021/08/02 05:13:44;;;;;;;0.50;0.50;;;;;;;18.04;65.05;98659.59;5153159;27;40027;-83
2021/08/02 05:16:12;;;;;;;0.53;0.50;;;;;;;18.18;64.57;98664.44;5135055;27;40765;-83
2021/08/02 05:18:40;;;;;;;0.60;0.60;;;;;;;18.28;64.64;98670.63;5151598;27;41919;-81
2021/08/02 05:21:07;;;;;;;0.57;0.57;;;;;;;18.29;64.41;98664.25;5151801;27;43256;-82
2021/08/02 05:23:35;;;;;;;0.40;0.40;;;;;;;18.50;63.98;98676.56;5134297;27;39092;-82
2021/08/02 05:26:04;;;;;;;0.40;0.40;;;;;;;18.59;63.90;98673.00;5134302;27;41665;-81
2021/08/02 05:28:32;;;;;;;0.50;0.50;;;;;;;18.52;63.15;98666.53;5134841;27;43093;-82
2021/08/02 05:31:00;;;;;;;0.67;0.67;;;;;;;18.69;62.97;98679.13;5133961;27;41453;-83
2021/08/02 05:33:27;;;;;;;0.60;0.60;;;;;;;18.78;63.15;98677.41;5152249;27;41155;-82
2021/08/02 05:35:55;;;;;;;0.70;0.63;;;;;;;18.86;62.61;98685.53;5151990;27;40969;-82
2021/08/02 05:38:22;;;;;;;0.77;0.77;;;;;;;18.90;62.53;98689.59;5152976;27;42719;-81
2021/08/02 05:40:50;;;;;;;0.60;0.50;;;;;;;18.94;62.56;98691.81;5152020;27;42572;-82
2021/08/02 05:43:19;;;;;;;0.60;0.53;;;;;;;18.97;62.42;98683.47;5152485;27;40225;-83
2021/08/02 05:45:46;;;;;;;0.77;0.67;;;;;;;19.01;61.96;98692.06;5134289;27;40948;-81
2021/08/02 05:48:14;;;;;;;0.90;0.90;;;;;;;18.99;62.02;98692.22;5150870;27;42818;-83
2021/08/02 05:50:42;;;;;;;0.63;0.63;;;;;;;18.88;62.23;98679.03;5133842;27;41589;-85
2021/08/02 05:53:09;;;;;;;0.70;0.70;;;;;;;18.92;62.00;98699.16;5133700;27;39047;-83
2021/08/02 05:55:37;;;;;;;0.70;0.70;;;;;;;18.87;62.38;98690.75;5152576;27;42758;-83
2021/08/02 05:58:04;;;;;;;0.67;0.43;;;;;;;18.83;62.48;98685.81;5133335;27;41826;-83
2021/08/02 06:00:34;;;;;;;0.50;0.50;;;;;;;18.91;62.01;98700.19;5134141;27;41340;-84
2021/08/02 06:03:01;;;;;;;0.60;0.60;;;;;;;18.94;61.80;98705.22;5153052;27;40096;-82
2021/08/02 06:05:29;;;;;;;0.40;0.40;;;;;;;18.90;62.04;98693.13;5134311;27;41064;-81
2021/08/02 06:07:56;;;;;;;0.50;0.50;;;;;;;18.98;61.69;98690.53;5152639;27;42912;-81
2021/08/02 06:10:24;;;;;;;0.37;0.37;;;;;;;19.04;60.98;98682.88;5152239;27;42804;-81
2021/08/02 06:12:52;;;;;;;1.67;0.63;;;;;;;19.33;61.30;98710.28;5150731;27;38818;-82
2021/08/02 06:15:19;;;;;;;0.37;0.37;;;;;;;19.44;60.70;98707.38;5151408;27;40443;-82
2021/08/02 06:17:48;;;;;;;0.47;0.47;;;;;;;19.53;60.77;98711.00;5151566;27;42791;-85
2021/08/02 06:20:16;;;;;;;0.67;0.67;;;;;;;19.53;60.76;98713.69;5150957;27;41820;-81
2021/08/02 06:22:43;;;;;;;0.50;0.50;;;;;;;19.43;60.69;98692.25;5152159;27;41996;-82
2021/08/02 06:25:11;;;;;;;0.60;0.60;;;;;;;19.51;60.78;98705.78;5151090;27;41777;-81
2021/08/02 06:27:39;;;;;;;0.70;0.70;;;;;;;19.51;60.40;98713.84;5150341;27;43023;-81
2021/08/02 06:30:07;;;;;;;0.70;0.70;;;;;;;19.51;60.36;98716.53;5133688;27;41072;-82
2021/08/02 06:32:35;;;;;;;0.67;0.60;;;;;;;19.50;60.57;98706.78;5149851;27;40198;-81
2021/08/02 06:35:04;;;;;;;0.50;0.50;;;;;;;19.62;60.44;98723.50;5150875;27;41572;-81
2021/08/02 06:37:32;;;;;;;0.77;0.77;;;;;;;19.58;60.60;98698.78;5150553;27;41921;-83
2021/08/02 06:40:00;;;;;;;0.57;0.57;;;;;;;19.71;60.17;98719.88;5151340;27;42377;-83
2021/08/02 06:42:27;;;;;;;1.10;1.03;;;;;;;19.85;60.48;98721.16;5151740;27;41091;-82
2021/08/02 06:44:55;;;;;;;1.50;1.27;;;;;;;19.96;59.83;98720.88;5149963;27;40747;-82
2021/08/02 06:47:23;;;;;;;0.93;0.93;;;;;;;20.17;59.46;98732.09;5150272;27;42827;-82
2021/08/02 06:49:51;;;;;;;0.70;0.70;;;;;;;20.24;58.83;98708.09;5150174;27;42083;-82
2021/08/02 06:52:20;;;;;;;0.40;0.40;;;;;;;20.40;58.49;98725.19;5150792;27;39926;-83
2021/08/02 06:54:47;;;;;;;1.00;1.00;;;;;;;20.61;57.76;98713.16;5150715;27;40967;-82
2021/08/02 06:57:16;;;;;;;0.60;0.50;;;;;;;21.05;57.08;98719.16;5150796;27;43702;-83
2021/08/02 06:59:43;;;;;;;1.23;0.70;;;;;;;21.43;55.66;98748.22;5150545;27;42432;-83
2021/08/02 07:02:11;;;;;;;0.40;0.40;;;;;;;21.44;55.94;98743.66;5133629;27;39846;-83
2021/08/02 07:04:39;;;;;;;1.00;0.70;;;;;;;21.43;55.32;98747.38;5150122;27;42021;-82
2021/08/02 07:07:06;;;;;;;0.50;0.50;;;;;;;21.49;55.21;98744.03;5150151;27;42184;-80
2021/08/02 07:09:36;;;;;;;0.70;0.70;;;;;;;21.61;55.11;98728.34;5149619;27;42252;-83
2021/08/02 07:12:05;;;;;;;0.80;0.60;;;;;;;21.86;54.66;98740.81;5150495;27;40880;-83
2021/08/02 07:14:32;;;;;;;0.60;0.60;;;;;;;21.99;55.07;98743.00;5150870;27;41748;-82
2021/08/02 07:17:00;;;;;;;0.40;0.40;;;;;;;22.15;54.45;98729.47;5149460;27;41806;-82
2021/08/02 07:19:28;;;;;;;1.37;0.80;;;;;;;22.37;53.81;98739.56;5133392;27;41499;-83
2021/08/02 07:21:56;;;;;;;0.87;0.87;;;;;;;22.48;52.93;98739.19;5133128;27;40001;-82
2021/08/02 07:24:23;;;;;;;0.50;0.50;;;;;;;22.66;52.58;98746.19;5150251;27;42121;-83
2021/08/02 07:26:52;;;;;;;0.53;0.53;;;;;;;22.85;52.79;98743.09;5133373;27;41714;-82
2021/08/02 07:29:20;;;;;;;0.40;0.40;;;;;;;23.10;52.55;98739.25;5131447;27;41215;-82
2021/08/02 07:31:48;;;;;;;0.77;0.50;;;;;;;23.66;50.77;98760.66;5150325;27;40230;-83
2021/08/02 07:34:16;;;;;;;0.43;0.43;;;;;;;24.30;49.24;98754.69;5150098;27;41468;-83
2021/08/02 07:36:43;;;;;;;0.50;0.50;;;;;;;25.23;46.19;98751.31;5150310;27;41928;-81
2021/08/02 07:39:11;;;;;;;0.60;0.60;;;;;;;25.83;44.32;98790.78;5150787;27;43280;-81
2021/08/02 07:41:39;;;;;;;0.53;0.53;;;;;;;26.53;43.46;98792.59;5149509;27;40798;-84
2021/08/02 07:44:11;;;;;;;0.57;0.40;;;;;;;27.22;41.79;98791.69;5131974;27;41697;-84
2021/08/02 07:46:39;;;;;;;0.70;0.70;;;;;;;27.81;40.81;98800.91;5154232;27;43107;-83
2021/08/02 07:49:06;;;;;;;0.40;0.40;;;;;;;28.44;39.13;98814.09;5155131;27;42483;-82
2021/08/02 07:51:34;;;;;;;0.60;0.60;;;;;;;28.60;39.35;98808.22;5135461;27;39339;-83
2021/08/02 07:54:03;;;;;;;0.30;0.30;;;;;;;27.79;39.24;98804.88;5154974;27;42688;-83
2021/08/02 07:56:32;;;;;;;0.60;0.60;;;;;;;27.11;40.85;98785.81;5154714;27;43869;-82
2021/08/02 07:59:01;;;;;;;0.70;0.70;;;;;;;26.61;42.07;98783.44;5134388;27;41316;-83
2021/08/02 08:01:30;;;;;;;0.70;0.70;;;;;;;26.42;42.62;98793.16;5154555;27;41190;-82
2021/08/02 08:03:58;;;;;;;0.47;0.47;;;;;;;26.29;43.23;98771.34;5153158;27;42548;-82
2021/08/02 08:06:25;;;;;;;0.50;0.50;;;;;;;26.39;42.58;98769.94;5154245;27;42777;-82
2021/08/02 08:08:53;;;;;;;0.43;0.43;;;;;;;26.46;43.13;98781.69;5153021;27;42271;-83
2021/08/02 08:11:20;;;;;;;0.50;0.50;;;;;;;26.82;42.46;98778.78;5154008;27;40211;-82
2021/08/02 08:13:48;;;;;;;0.80;0.80;;;;;;;27.29;42.00;98771.66;5157114;27;41894;-84
2021/08/02 08:16:15;;;;;;;0.60;0.60;;;;;;;27.63;40.24;98794.38;5157343;27;42172;-82
2021/08/02 08:18:45;;;;;;;0.50;0.50;;;;;;;27.60;40.74;98781.16;5154923;27;42794;-83
2021/08/02 08:21:12;;;;;;;0.50;0.50;;;;;;;27.93;40.50;98794.84;5135093;27;40185;-82
2021/08/02 08:23:40;;;;;;;0.80;0.80;;;;;;;28.14;38.80;98800.06;5152538;27;41605;-83
2021/08/02 08:26:07;;;;;;;0.60;0.60;;;;;;;28.55;39.33;98794.41;5135136;27;41781;-82
2021/08/02 08:28:35;;;;;;;0.70;0.70;;;;;;;28.90;39.79;98793.09;5135093;27;42637;-83
2021/08/02 08:31:03;;;;;;;0.50;0.50;;;;;;;28.69;38.34;98796.03;5153796;27;40156;-83
2021/08/02 08:33:30;;;;;;;0.57;0.57;;;;;;;28.60;37.73;98808.22;5154088;27;41783;-83
2021/08/02 08:35:59;;;;;;;0.87;0.80;;;;;;;28.53;38.55;98774.72;5152722;27;42822;-85
2021/08/02 08:38:27;;;;;;;0.63;0.63;;;;;;;28.47;38.39;98802.81;5154103;27;42586;-80
2021/08/02 08:40:54;;;;;;;0.80;0.80;;;;;;;28.95;37.91;98784.25;5134350;27;39107;-83
2021/08/02 08:43:22;;;;;;;0.53;0.53;;;;;;;30.58;35.22;98818.97;5152735;27;40669;-82
2021/08/02 08:45:50;;;;;;;0.87;0.87;;;;;;;31.46;32.77;98832.28;5152837;27;42758;-83
2021/08/02 08:48:17;;;;;;;0.60;0.60;;;;;;;33.16;31.39;98843.44;5152909;27;42403;-83
2021/08/02 08:50:46;;;;;;;0.60;0.60;;;;;;;33.21;29.98;98840.00;5134456;27;39847;-81
2021/08/02 08:53:21;;;;;;;0.60;0.60;;;;;;;33.56;30.09;98807.78;5134921;27;40599;-84
2021/08/02 08:55:49;;;;;;;0.60;0.60;;;;;;;33.37;30.51;98833.78;5153349;27;42582;-84
2021/08/02 08:58:19;;;;;;;0.60;0.60;;;;;;;32.57;30.61;98817.13;5154983;27;41608;-84
2021/08/02 09:00:47;;;;;;;1.17;1.13;;;;;;;32.13;32.26;98816.59;5162963;27;39877;-84
2021/08/02 09:03:31;;;;;;;0.50;0.50;;;;;;;32.10;32.25;98800.63;5163090;27;40730;-83
2021/08/02 09:06:02;;;;;;;0.60;0.60;;;;;;;31.53;32.27;98793.88;5163218;27;43065;-84
2021/08/02 09:08:49;;;;;;;0.50;0.50;;;;;;;31.57;32.16;98784.13;5162795;27;41425;-83
2021/08/02 09:11:22;;;;;;;0.73;0.73;;;;;;;31.88;32.12;98794.84;5163877;27;39837;-82
2021/08/02 09:13:52;;;;;;;0.60;0.60;;;;;;;32.02;31.51;98792.75;5180365;27;43041;-83
2021/08/02 09:16:21;;;;;;;0.60;0.60;;;;;;;32.54;30.25;98823.06;5162970;27;42688;-82
2021/08/02 09:19:00;;;;;;;0.60;0.60;;;;;;;33.22;29.85;98826.03;5150563;27;42080;-82
2021/08/02 09:21:28;;;;;;;0.80;0.70;;;;;;;32.89;29.94;98793.75;5146001;27;39519;-82
2021/08/02 09:23:59;;;;;;;1.50;0.60;;;;;;;33.18;30.03;98803.72;5144600;27;40770;-84
2021/08/02 09:26:35;;;;;;;0.57;0.57;;;;;;;33.20;29.65;98778.75;5145742;27;41643;-83
2021/08/02 09:29:09;;;;;;;0.40;0.40;;;;;;;32.97;29.27;98793.38;5172251;27;41363;-84
2021/08/02 09:31:52;;;;;;;0.50;0.50;;;;;;;32.71;30.36;98792.00;5158019;27;39036;-82
2021/08/02 09:37:21;;;;;;;0.40;0.40;;;;;;;32.46;30.04;98745.59;5124822;27;43922;-83
2021/08/02 09:39:53;;;;;;;0.43;0.43;;;;;;;32.44;29.78;98755.97;5111445;27;42012;-83
2021/08/02 09:42:30;;;;;;;0.50;0.40;;;;;;;32.60;31.17;98768.13;5095751;27;40853;-83
2021/08/02 09:45:58;;;;;;;0.50;0.50;;;;;;;32.75;29.34;98809.66;5108861;27;41971;-84
2021/08/02 09:48:48;;;;;;;0.50;0.50;;;;;;;32.01;29.67;98796.56;5111979;27;42932;-85
2021/08/02 09:51:17;;;;;;;0.50;0.50;;;;;;;31.45;31.02;98784.06;5111032;27;42295;-83
2021/08/02 09:53:50;;;;;;;0.60;0.60;;;;;;;31.04;32.24;98766.47;5111818;27;39805;-84
2021/08/02 09:56:25;;;;;;;0.40;0.40;;;;;;;30.51;33.54;98751.72;5129889;27;40762;-83
2021/08/02 09:58:55;;;;;;;0.60;0.60;;;;;;;29.93;33.64;98766.50;5112393;27;41716;-84
2021/08/02 10:01:25;;;;;;;0.40;0.40;;;;;;;29.18;34.80;98731.91;5095266;27;41575;-83
2021/08/02 10:03:55;;;;;;;0.50;0.50;;;;;;;28.63;34.86;98756.03;5095827;27;39922;-83
2021/08/02 10:06:31;;;;;;;0.63;0.50;;;;;;;28.18;36.07;98765.97;5112582;27;41852;-85
2021/08/02 10:09:00;;;;;;;0.40;0.40;;;;;;;27.48;37.16;98732.78;5094624;27;41997;-82
2021/08/02 10:11:31;;;;;;;0.50;0.50;;;;;;;26.92;38.45;98701.47;5120424;27;42232;-82
2021/08/02 10:13:59;;;;;;;0.47;0.47;;;;;;;26.76;39.46;98733.38;5152274;27;41050;-81
2021/08/02 10:16:28;;;;;;;0.60;0.60;;;;;;;26.44;41.35;98724.03;5133797;27;41754;-83
2021/08/02 10:19:03;;;;;;;0.50;0.50;;;;;;;25.90;42.56;98721.13;5151488;27;43514;-86
2021/08/02 10:21:41;;;;;;;0.50;0.50;;;;;;;25.06;46.09;98692.97;5149688;27;41658;-85
2021/08/02 10:24:10;;;;;;;0.50;0.50;;;;;;;24.69;48.68;98688.56;5150630;27;39379;-83
2021/08/02 10:26:40;;;;;;;0.43;0.43;;;;;;;24.57;50.82;98674.66;5151784;27;41332;-84
2021/08/02 10:29:09;;;;;;;0.73;0.73;;;;;;;24.59;50.61;98683.44;5133036;27;42042;-85
2021/08/02 10:31:45;;;;;;;0.40;0.40;;;;;;;24.58;50.46;98695.31;5133017;27;42524;-82
2021/08/02 10:34:15;;;;;;;0.70;0.70;;;;;;;24.56;51.11;98689.22;5150761;27;40262;-83
2021/08/02 10:36:43;;;;;;;0.50;0.50;;;;;;;24.46;49.94;98695.97;5150072;27;40732;-82
2021/08/02 10:39:21;;;;;;;0.70;0.70;;;;;;;24.35;49.94;98697.28;5133445;27;41802;-84
2021/08/02 10:41:50;;;;;;;0.50;0.50;;;;;;;24.31;49.58;98706.81;5132131;27;41482;-82
2021/08/02 10:44:20;;;;;;;1.00;0.90;;;;;;;24.15;50.23;98682.59;5150596;27;41024;-83
2021/08/02 10:46:47;;;;;;;0.50;0.50;;;;;;;24.19;49.99;98708.25;5151650;27;42539;-82
2021/08/02 10:49:18;;;;;;;0.67;0.67;;;;;;;24.07;48.87;98723.28;5150328;27;43137;-84
2021/08/02 10:51:48;;;;;;;0.60;0.60;;;;;;;24.23;47.82;98707.72;5150879;27;41530;-83
2021/08/02 10:54:16;;;;;;;0.77;0.77;;;;;;;25.36;47.66;98713.50;5133102;27;40956;-84
2021/08/02 10:56:48;;;;;;;0.50;0.50;;;;;;;26.71;45.50;98719.53;5133013;27;41141;-82
2021/08/02 10:59:18;;;;;;;0.50;0.50;;;;;;;28.26;44.15;98718.59;5151774;27;43366;-84
2021/08/02 11:01:47;;;;;;;0.60;0.60;;;;;;;28.60;40.01;98748.28;5150138;27;42042;-82
2021/08/02 11:04:18;;;;;;;0.30;0.30;;;;;;;27.96;40.38;98737.22;5150243;27;40222;-84
2021/08/02 11:06:47;;;;;;;0.47;0.47;;;;;;;27.31;41.72;98726.06;5150501;27;42103;-84
2021/08/02 11:09:15;;;;;;;0.67;0.60;;;;;;;26.53;43.48;98700.25;5132183;27;43101;-82
2021/08/02 11:11:44;;;;;;;0.50;0.50;;;;;;;26.02;45.33;98703.25;5150352;27;42541;-82
2021/08/02 11:14:13;;;;;;;0.47;0.47;;;;;;;25.63;47.00;98675.81;5132974;27;39922;-84
2021/08/02 11:16:43;;;;;;;0.60;0.60;;;;;;;25.89;46.31;98699.59;5132948;27;41661;-82
2021/08/02 11:19:20;;;;;;;0.50;0.50;;;;;;;26.34;45.33;98684.66;5132507;27;41734;-81
2021/08/02 11:21:48;;;;;;;0.73;0.73;;;;;;;26.44;45.17;98668.88;5150541;27;43012;-82
2021/08/02 11:24:16;;;;;;;0.57;0.53;;;;;;;26.79;44.17;98708.53;5150954;27;39967;-83
2021/08/02 11:26:48;;;;;;;0.40;0.40;;;;;;;26.80;42.73;98707.47;5150959;27;42734;-82
2021/08/02 11:29:21;;;;;;;0.50;0.50;;;;;;;26.70;42.13;98709.75;5150415;27;42888;-83
2021/08/02 11:31:59;;;;;;;0.50;0.50;;;;;;;26.40;42.58;98690.16;5149662;27;41371;-82
2021/08/02 11:34:29;;;;;;;0.40;0.40;;;;;;;26.36;43.38;98705.16;5132754;27;38991;-82
2021/08/02 11:36:58;;;;;;;0.67;0.53;;;;;;;26.29;43.95;98700.75;5150690;27;42081;-83
2021/08/02 11:39:26;;;;;;;0.60;0.60;;;;;;;26.26;44.13;98684.81;5150190;27;42766;-82
2021/08/02 11:42:01;;;;;;;1.03;0.70;;;;;;;26.42;45.34;98698.09;5149780;27;43067;-82
2021/08/02 11:44:29;;;;;;;0.57;0.50;;;;;;;26.41;44.38;98701.84;5149520;27;40074;-82
2021/08/02 11:46:59;;;;;;;0.40;0.40;;;;;;;26.32;44.23;98703.06;5131646;27;40712;-81
2021/08/02 11:49:28;;;;;;;0.50;0.50;;;;;;;26.22;44.37;98708.81;5132845;27;42460;-82
2021/08/02 11:51:57;;;;;;;0.60;0.60;;;;;;;25.82;47.30;98675.16;5131891;27;42332;-84